Mare Island — WDC2198 — position and weather

sailwx.info

Track history (hours):
 
Tides and Currents Weather Stations Pressure Air Temp Water Temp Dewpoint Dewpoint Depression Visibility Wind Speed Wind Dir Waves Ship Positions

Mare Island

Owner: San Francisco Bay Area Water Emergency Transportation Authority, Vallejo, CA. More information available from US FCC via Universal Licensing System and Coast Guard Vessel Documentation Center.

Last reported at 2018-Apr-25 23:31 UTC. Time now 2018-Apr-25 23:29 UTC.
Position N 37°49' W 122°23'.

Length 42 m; draft 3 m.

Type: Passenger vessel. MMSI: 366989380.

Date/timePositionNaut miles runAvg speedWind from/ knotsBaromVisibWave heightAir tempDewpointWater temp
2018-Apr-25 23:31N 37°49' W 122°23'1 1.7
2018-Apr-25 23:01N 37°48' W 122°23'1529.4
2018-Apr-25 22:30N 38°03' W 122°20'5 9.4
2018-Apr-25 22:01N 38°06' W 122°16'0 0.1
2018-Apr-25 19:33N 38°06' W 122°16'2 4.8
2018-Apr-25 19:14N 38°05' W 122°15'628.0
2018-Apr-25 19:01N 38°01' W 122°22'1326.2
2018-Apr-25 18:31N 37°49' W 122°25'1 2.3
2018-Apr-25 18:00N 37°48' W 122°24'1224.9
2018-Apr-25 17:30N 38°00' W 122°24'917.4
2018-Apr-25 17:00N 38°06' W 122°16'0 0.0
2018-Apr-25 16:30N 38°06' W 122°16'0 0.9
2018-Apr-25 15:59N 38°06' W 122°16'1328.0
2018-Apr-25 15:30N 37°55' W 122°26'815.2
2018-Apr-25 15:00N 37°48' W 122°24'1522.6
2018-Apr-25 14:20N 38°03' W 122°20'513.9
2018-Apr-25 14:00N 38°06' W 122°16'0 0.6
2018-Apr-25 13:30N 38°06' W 122°16'0 0.0
2018-Apr-25 11:38N 38°06' W 122°16'0 0.0
2018-Apr-25 11:20N 38°06' W 122°16'0 0.0
2018-Apr-25 10:08N 38°06' W 122°16'0 0.0
2018-Apr-25 09:50N 38°06' W 122°16'0 0.0
2018-Apr-25 08:50N 38°06' W 122°16'0 0.0
2018-Apr-25 08:20N 38°06' W 122°16'0 0.0
2018-Apr-25 07:56N 38°06' W 122°16'0 0.0
2018-Apr-25 06:02N 38°06' W 122°16'0 0.0
2018-Apr-25 04:27N 38°06' W 122°16'1 2.4
2018-Apr-25 04:00N 38°05' W 122°15'1327.3
2018-Apr-25 03:30N 37°55' W 122°25'713.6
2018-Apr-25 03:00N 37°48' W 122°24'612.5
2018-Apr-25 02:30N 37°54' W 122°26'1427.0
2018-Apr-25 01:59N 38°05' W 122°15'1 2.7
2018-Apr-25 01:30N 38°06' W 122°16'0 0.7
2018-Apr-25 01:00N 38°06' W 122°16'1122.4
2018-Apr-25 00:30N 37°58' W 122°26'1121.0
2018-Apr-25 00:00N 37°48' W 122°24'1223.4
2018-Apr-24 23:30N 37°59' W 122°25'1013.9
2018-Apr-24 22:47N 38°06' W 122°16'0 0.7
2018-Apr-24 22:23N 38°06' W 122°16'1 0.2
2018-Apr-24 16:43N 38°05' W 122°15'420.1
2018-Apr-24 16:31N 38°02' W 122°19'1529.7
2018-Apr-24 16:00N 37°48' W 122°24'5 9.9
2018-Apr-24 15:31N 37°53' W 122°25'1428.7
2018-Apr-24 15:00N 38°04' W 122°15'2 2.9
2018-Apr-24 14:24N 38°06' W 122°16'819.5
2018-Apr-24 14:01N 38°01' W 122°23'1325.9
2018-Apr-24 13:30N 37°48' W 122°24'1121.6
2018-Apr-24 13:00N 37°58' W 122°26'11 1.4
2018-Apr-24 05:15N 38°06' W 122°16'0 0.0
2018-Apr-24 04:51N 38°06' W 122°16'0 0.0
2018-Apr-24 04:27N 38°06' W 122°16'0 0.0
2018-Apr-24 03:51N 38°06' W 122°16'0 0.0
2018-Apr-24 03:27N 38°06' W 122°16'0 0.0
2018-Apr-24 02:57N 38°06' W 122°16'0 0.0
2018-Apr-24 02:27N 38°06' W 122°16'0 0.7
2018-Apr-24 02:00N 38°06' W 122°16'510.5
2018-Apr-24 01:31N 38°02' W 122°20'1428.9
2018-Apr-24 01:00N 37°48' W 122°24'3 5.6
2018-Apr-24 00:31N 37°51' W 122°24'1529.6
2018-Apr-24 00:01N 38°04' W 122°16'2 4.5
2018-Apr-23 23:30N 38°06' W 122°16'510.2
2018-Apr-23 23:00N 38°02' W 122°20'1529.0
2018-Apr-23 22:30N 37°48' W 122°24'1 2.4
2018-Apr-23 22:01N 37°49' W 122°25'917.9
2018-Apr-23 21:30N 37°57' W 122°27'1217.6
2018-Apr-23 20:49N 38°06' W 122°16'0 0.1
2018-Apr-23 19:37N 38°06' W 122°16'0 1.4
2018-Apr-23 19:30N 38°06' W 122°16'510.7
2018-Apr-23 19:00N 38°02' W 122°20'1427.7
2018-Apr-23 18:30N 37°49' W 122°25'1 2.4
2018-Apr-23 18:01N 37°48' W 122°24'1019.6
2018-Apr-23 17:30N 37°57' W 122°27'1224.1
2018-Apr-23 17:00N 38°06' W 122°16'0 0.0
2018-Apr-23 16:30N 38°06' W 122°16'1 1.4
2018-Apr-23 16:00N 38°05' W 122°15'1326.3
2018-Apr-23 15:31N 37°55' W 122°25'714.7
2018-Apr-23 15:00N 37°48' W 122°24'1223.1
2018-Apr-23 14:31N 37°59' W 122°25'1019.9
2018-Apr-23 14:00N 38°06' W 122°16'0 0.6
2018-Apr-23 13:30N 38°06' W 122°16'0 0.0
2018-Apr-23 12:59N 38°06' W 122°16'0 0.0
2018-Apr-23 11:24N 38°06' W 122°16'0 0.0
2018-Apr-23 11:00N 38°06' W 122°16'0 0.0
2018-Apr-23 09:51N 38°06' W 122°16'0 0.0
2018-Apr-23 09:30N 38°06' W 122°16'0 0.0
2018-Apr-23 09:00N 38°06' W 122°16'0 0.0
2018-Apr-23 08:30N 38°06' W 122°16'0 0.0
2018-Apr-23 08:00N 38°06' W 122°16'0 0.0
2018-Apr-23 07:30N 38°06' W 122°16'0 0.0
2018-Apr-23 07:00N 38°06' W 122°16'0 0.0
2018-Apr-23 06:30N 38°06' W 122°16'0 0.0
2018-Apr-23 06:00N 38°06' W 122°16'0 0.0
2018-Apr-23 05:30N 38°06' W 122°16'0 0.0
2018-Apr-23 05:00N 38°06' W 122°16'0 0.0
2018-Apr-23 04:30N 38°06' W 122°16'0 0.0
2018-Apr-23 04:00N 38°06' W 122°16'0 0.0
2018-Apr-23 03:30N 38°06' W 122°16'0 0.0
2018-Apr-23 03:00N 38°06' W 122°16'0 0.0
2018-Apr-23 00:49N 38°06' W 122°16'0 1.0
2018-Apr-23 00:30N 38°06' W 122°16'1123.3
2018-Apr-23 00:01N 37°58' W 122°26'1020.2
2018-Apr-22 23:30N 37°48' W 122°24'1325.4
2018-Apr-22 23:00N 38°00' W 122°24'812.6
2018-Apr-22 22:21N 38°06' W 122°16'0 0.0
2018-Apr-22 20:43N 38°06' W 122°16'2 7.8
2018-Apr-22 20:29N 38°04' W 122°15'1430.0
2018-Apr-22 20:01N 37°53' W 122°25'510.1
2018-Apr-22 19:30N 37°48' W 122°24'1122.6
2018-Apr-22 19:01N 37°59' W 122°26'10 6.4
2018-Apr-22 17:24N 38°06' W 122°16'0 0.0
2018-Apr-22 16:48N 38°06' W 122°16'0 0.0
2018-Apr-22 16:30N 38°06' W 122°16'0 0.0
2018-Apr-22 16:00N 38°06' W 122°16'0 0.0
2018-Apr-22 15:24N 38°06' W 122°16'0 0.0
2018-Apr-22 15:00N 38°06' W 122°16'0 0.0
2018-Apr-22 13:30N 38°06' W 122°16'0 0.0
2018-Apr-22 11:54N 38°06' W 122°16'0 0.0
2018-Apr-22 11:18N 38°06' W 122°16'0 0.0
2018-Apr-22 11:00N 38°06' W 122°16'0 0.0
2018-Apr-22 10:30N 38°06' W 122°16'0 0.0
2018-Apr-22 10:00N 38°06' W 122°16'0 0.0
2018-Apr-22 09:30N 38°06' W 122°16'0 0.0
2018-Apr-22 09:00N 38°06' W 122°16'0 0.0
2018-Apr-22 08:30N 38°06' W 122°16'0 0.0
2018-Apr-22 07:54N 38°06' W 122°16'0 0.0
2018-Apr-22 04:36N 38°06' W 122°16'0 0.0
2018-Apr-22 03:24N 38°06' W 122°16'0 0.0
2018-Apr-22 03:00N 38°06' W 122°16'0 0.0
2018-Apr-22 02:30N 38°06' W 122°16'0 0.0
2018-Apr-22 02:00N 38°06' W 122°16'0 0.0
2018-Apr-22 01:30N 38°06' W 122°16'0 0.0
2018-Apr-22 01:00N 38°06' W 122°16'0 0.8
2018-Apr-22 00:30N 38°06' W 122°16'1224.2
2018-Apr-22 00:01N 37°57' W 122°26'918.3
2018-Apr-21 23:30N 37°48' W 122°24'1326.9
2018-Apr-21 23:00N 38°01' W 122°23'714.2
2018-Apr-21 22:30N 38°06' W 122°16'0 0.1
2018-Apr-21 20:53N 38°06' W 122°16'2 4.9
2018-Apr-21 20:28N 38°04' W 122°15'1431.0
2018-Apr-21 20:01N 37°52' W 122°24'4 8.6
2018-Apr-21 19:30N 37°48' W 122°24'1326.2
2018-Apr-21 19:01N 38°01' W 122°24'8 3.9
2018-Apr-21 17:00N 38°06' W 122°16'0 0.0
2018-Apr-21 16:30N 38°06' W 122°16'0 0.0
2018-Apr-21 15:36N 38°06' W 122°16'0 0.0
2018-Apr-21 15:24N 38°06' W 122°16'0 0.0
2018-Apr-21 15:00N 38°06' W 122°16'0 0.0
2018-Apr-21 10:48N 38°06' W 122°16'0 0.0
2018-Apr-21 03:22N 38°06' W 122°16'1 2.5
2018-Apr-21 03:00N 38°05' W 122°15'1326.8
2018-Apr-21 02:30N 37°55' W 122°25'612.6
2018-Apr-21 02:00N 37°49' W 122°24'3 5.6
2018-Apr-21 01:31N 37°51' W 122°25'1530.2
2018-Apr-21 01:00N 38°04' W 122°15'2 3.8
2018-Apr-21 00:30N 38°06' W 122°16'511.1
2018-Apr-21 00:00N 38°02' W 122°21'1428.7
2018-Apr-20 23:30N 37°48' W 122°24'2 3.6
2018-Apr-20 23:01N 37°50' W 122°24'1428.7
2018-Apr-20 22:30N 38°03' W 122°17'3 6.3
2018-Apr-20 22:00N 38°06' W 122°16'0 0.1
2018-Apr-20 19:32N 38°06' W 122°16'0 4.4
2018-Apr-20 19:30N 38°06' W 122°16'4 8.7
2018-Apr-20 19:00N 38°02' W 122°19'1529.5
2018-Apr-20 18:31N 37°49' W 122°25'1 2.4
2018-Apr-20 18:00N 37°48' W 122°24'1019.9
2018-Apr-20 17:31N 37°57' W 122°27'12 9.1
2018-Apr-20 16:11N 38°06' W 122°16'1 6.6
2018-Apr-20 16:00N 38°05' W 122°15'1326.5
2018-Apr-20 15:30N 37°55' W 122°25'714.8
2018-Apr-20 15:00N 37°48' W 122°24'918.6
2018-Apr-20 14:30N 37°57' W 122°27'1323.4
2018-Apr-20 13:58N 38°06' W 122°16'0 0.0
2018-Apr-20 03:25N 38°06' W 122°16'1 3.3
2018-Apr-20 02:59N 38°05' W 122°15'1327.4
2018-Apr-20 02:31N 37°55' W 122°25'612.9
2018-Apr-20 02:01N 37°49' W 122°24'1 2.6
2018-Apr-20 01:30N 37°50' W 122°25'1631.1
2018-Apr-20 01:00N 38°04' W 122°16'2 4.3
2018-Apr-20 00:29N 38°06' W 122°16'612.7
2018-Apr-20 00:00N 38°02' W 122°21'1428.1
2018-Apr-19 23:30N 37°48' W 122°24'0 0.9
2018-Apr-19 23:01N 37°48' W 122°23'1529.8
2018-Apr-19 22:30N 38°03' W 122°19'4 8.0
2018-Apr-19 22:00N 38°06' W 122°16'0 0.0
2018-Apr-19 16:55N 38°06' W 122°16'612.9
2018-Apr-19 16:30N 38°02' W 122°20'1428.5
2018-Apr-19 16:00N 37°48' W 122°24'1 2.8
2018-Apr-19 15:31N 37°49' W 122°24'1631.4
2018-Apr-19 15:00N 38°04' W 122°16'2 4.7
2018-Apr-19 14:30N 38°06' W 122°16'816.5
2018-Apr-19 14:01N 38°01' W 122°23'1325.5
2018-Apr-19 13:30N 37°48' W 122°24'1020.1
2018-Apr-19 13:00N 37°58' W 122°26'1120.3
2018-Apr-19 12:27N 38°06' W 122°16'0 0.0
2018-Apr-19 04:25N 38°06' W 122°16'2 3.7
2018-Apr-19 04:00N 38°05' W 122°15'1326.5
2018-Apr-19 03:31N 37°55' W 122°25'714.7
2018-Apr-19 03:00N 37°48' W 122°24'2 3.7
2018-Apr-19 02:31N 37°50' W 122°24'1631.4
2018-Apr-19 02:00N 38°04' W 122°15'2 2.4
2018-Apr-19 01:11N 38°06' W 122°16'1 6.8
2018-Apr-19 01:00N 38°05' W 122°15'1327.1
2018-Apr-19 00:31N 37°54' W 122°25'713.5
2018-Apr-19 00:00N 37°48' W 122°24'1223.2
2018-Apr-18 23:30N 37°59' W 122°25'1018.8
2018-Apr-18 22:59N 38°06' W 122°16'0 0.0
2018-Apr-18 16:59N 38°06' W 122°16'612.2
2018-Apr-18 16:30N 38°02' W 122°21'1427.6
2018-Apr-18 16:00N 37°48' W 122°24'1 1.5
2018-Apr-18 15:31N 37°49' W 122°23'1631.3
2018-Apr-18 15:00N 38°03' W 122°17'3 5.6
2018-Apr-18 14:30N 38°06' W 122°16'816.2
2018-Apr-18 14:00N 38°01' W 122°23'1325.4
2018-Apr-18 13:30N 37°48' W 122°24'918.4
2018-Apr-18 13:00N 37°57' W 122°26'1218.9
2018-Apr-18 12:22N 38°06' W 122°16'0 0.1
2018-Apr-18 09:18N 38°06' W 122°16'0 0.0
2018-Apr-18 07:23N 38°06' W 122°16'0 0.0
2018-Apr-18 07:00N 38°06' W 122°16'0 0.0
2018-Apr-18 06:30N 38°06' W 122°16'0 0.0
2018-Apr-18 06:00N 38°06' W 122°16'0 0.0
2018-Apr-18 05:16N 38°06' W 122°16'0 0.0
2018-Apr-18 05:00N 38°06' W 122°16'0 0.0
2018-Apr-18 04:30N 38°06' W 122°16'0 0.0
2018-Apr-18 04:00N 38°06' W 122°16'0 0.3
2018-Apr-18 03:30N 38°06' W 122°16'2 3.8
2018-Apr-18 03:00N 38°05' W 122°15'1326.7
2018-Apr-18 02:31N 37°54' W 122°25'611.1
2018-Apr-18 02:00N 37°49' W 122°24'2 4.0
2018-Apr-18 01:31N 37°50' W 122°25'1631.0
2018-Apr-18 01:00N 38°04' W 122°15'2 2.6
2018-Apr-18 00:16N 38°06' W 122°16'2 7.7
2018-Apr-18 00:00N 38°04' W 122°15'1529.4
2018-Apr-17 23:31N 37°51' W 122°24'2 4.8
2018-Apr-17 23:00N 37°49' W 122°24'1530.3
2018-Apr-17 22:30N 38°03' W 122°17'3 5.6
2018-Apr-17 22:01N 38°06' W 122°16'0 0.0
2018-Apr-17 16:59N 38°06' W 122°16'713.7
2018-Apr-17 16:31N 38°01' W 122°22'1427.0
2018-Apr-17 16:00N 37°48' W 122°24'1 1.3
2018-Apr-17 15:31N 37°48' W 122°23'1631.3
2018-Apr-17 15:01N 38°03' W 122°17'3 5.8
2018-Apr-17 14:30N 38°06' W 122°16'816.3
2018-Apr-17 14:01N 38°01' W 122°23'1325.5
2018-Apr-17 13:30N 37°48' W 122°24'918.6
2018-Apr-17 13:01N 37°57' W 122°27'1317.5
2018-Apr-17 12:17N 38°06' W 122°16'0 0.0
2018-Apr-17 04:21N 38°06' W 122°16'1 2.9
2018-Apr-17 04:01N 38°05' W 122°15'1326.3
2018-Apr-17 03:31N 37°55' W 122°25'714.2
2018-Apr-17 03:01N 37°48' W 122°24'1 1.3
2018-Apr-17 02:31N 37°48' W 122°23'1631.3
2018-Apr-17 02:01N 38°03' W 122°17'3 3.4
2018-Apr-17 01:11N 38°06' W 122°16'1 6.2
2018-Apr-17 01:01N 38°05' W 122°15'1225.0
2018-Apr-17 00:30N 37°56' W 122°26'816.1
2018-Apr-17 00:00N 37°48' W 122°24'1122.3
2018-Apr-16 23:31N 37°59' W 122°26'1114.4
2018-Apr-16 22:47N 38°06' W 122°16'0 0.0
2018-Apr-16 16:51N 38°06' W 122°16'514.7
2018-Apr-16 16:30N 38°02' W 122°20'1529.3
2018-Apr-16 16:01N 37°48' W 122°24'1 2.3
2018-Apr-16 15:30N 37°49' W 122°23'1530.3
2018-Apr-16 15:01N 38°03' W 122°17'3 5.5
2018-Apr-16 14:29N 38°06' W 122°16'816.6
2018-Apr-16 14:01N 38°01' W 122°23'1325.9
2018-Apr-16 13:30N 37°48' W 122°24'1019.8
2018-Apr-16 13:01N 37°57' W 122°27'1216.2
2018-Apr-16 12:16N 38°06' W 122°16'2 0.2
2018-Apr-16 02:41N 38°04' W 122°15'528.8
2018-Apr-16 02:30N 38°02' W 122°21'1428.7
2018-Apr-16 02:01N 37°48' W 122°24'1 2.4
2018-Apr-16 01:30N 37°49' W 122°25'0 0.4
2018-Apr-16 01:00N 37°49' W 122°25'1530.5
2018-Apr-16 00:31N 38°03' W 122°18'3 5.8
2018-Apr-15 23:54N 38°06' W 122°16'511.6
2018-Apr-15 23:31N 38°02' W 122°19'  
Track history (hours):
 
Tides and Currents Weather Stations Pressure Air Temp Water Temp Dewpoint Dewpoint Depression Visibility Wind Speed Wind Dir Waves Ship Positions

Mare Island

Owner: San Francisco Bay Area Water Emergency Transportation Authority, Vallejo, CA. More information available from US FCC via Universal Licensing System and Coast Guard Vessel Documentation Center.

Last reported at 2018-Apr-25 23:31 UTC. Time now 2018-Apr-25 23:29 UTC.
Position N 37°49' W 122°23'.

Length 42 m; draft 3 m.

Type: Passenger vessel. MMSI: 366989380.

Date/timePositionNaut miles runAvg speedWind from/ knotsBaromVisibWave heightAir tempDewpointWater temp
2018-Apr-25 23:31N 37°49' W 122°23'1 1.7
2018-Apr-25 23:01N 37°48' W 122°23'1529.4
2018-Apr-25 22:30N 38°03' W 122°20'5 9.4
2018-Apr-25 22:01N 38°06' W 122°16'0 0.1
2018-Apr-25 19:33N 38°06' W 122°16'2 4.8
2018-Apr-25 19:14N 38°05' W 122°15'628.0
2018-Apr-25 19:01N 38°01' W 122°22'1326.2
2018-Apr-25 18:31N 37°49' W 122°25'1 2.3
2018-Apr-25 18:00N 37°48' W 122°24'1224.9
2018-Apr-25 17:30N 38°00' W 122°24'917.4
2018-Apr-25 17:00N 38°06' W 122°16'0 0.0
2018-Apr-25 16:30N 38°06' W 122°16'0 0.9
2018-Apr-25 15:59N 38°06' W 122°16'1328.0
2018-Apr-25 15:30N 37°55' W 122°26'815.2
2018-Apr-25 15:00N 37°48' W 122°24'1522.6
2018-Apr-25 14:20N 38°03' W 122°20'513.9
2018-Apr-25 14:00N 38°06' W 122°16'0 0.6
2018-Apr-25 13:30N 38°06' W 122°16'0 0.0
2018-Apr-25 11:38N 38°06' W 122°16'0 0.0
2018-Apr-25 11:20N 38°06' W 122°16'0 0.0
2018-Apr-25 10:08N 38°06' W 122°16'0 0.0
2018-Apr-25 09:50N 38°06' W 122°16'0 0.0
2018-Apr-25 08:50N 38°06' W 122°16'0 0.0
2018-Apr-25 08:20N 38°06' W 122°16'0 0.0
2018-Apr-25 07:56N 38°06' W 122°16'0 0.0
2018-Apr-25 06:02N 38°06' W 122°16'0 0.0
2018-Apr-25 04:27N 38°06' W 122°16'1 2.4
2018-Apr-25 04:00N 38°05' W 122°15'1327.3
2018-Apr-25 03:30N 37°55' W 122°25'713.6
2018-Apr-25 03:00N 37°48' W 122°24'612.5
2018-Apr-25 02:30N 37°54' W 122°26'1427.0
2018-Apr-25 01:59N 38°05' W 122°15'1 2.7
2018-Apr-25 01:30N 38°06' W 122°16'0 0.7
2018-Apr-25 01:00N 38°06' W 122°16'1122.4
2018-Apr-25 00:30N 37°58' W 122°26'1121.0
2018-Apr-25 00:00N 37°48' W 122°24'1223.4
2018-Apr-24 23:30N 37°59' W 122°25'1013.9
2018-Apr-24 22:47N 38°06' W 122°16'0 0.7
2018-Apr-24 22:23N 38°06' W 122°16'1 0.2
2018-Apr-24 16:43N 38°05' W 122°15'420.1
2018-Apr-24 16:31N 38°02' W 122°19'1529.7
2018-Apr-24 16:00N 37°48' W 122°24'5 9.9
2018-Apr-24 15:31N 37°53' W 122°25'1428.7
2018-Apr-24 15:00N 38°04' W 122°15'2 2.9
2018-Apr-24 14:24N 38°06' W 122°16'819.5
2018-Apr-24 14:01N 38°01' W 122°23'1325.9
2018-Apr-24 13:30N 37°48' W 122°24'1121.6
2018-Apr-24 13:00N 37°58' W 122°26'11 1.4
2018-Apr-24 05:15N 38°06' W 122°16'0 0.0
2018-Apr-24 04:51N 38°06' W 122°16'0 0.0
2018-Apr-24 04:27N 38°06' W 122°16'0 0.0
2018-Apr-24 03:51N 38°06' W 122°16'0 0.0
2018-Apr-24 03:27N 38°06' W 122°16'0 0.0
2018-Apr-24 02:57N 38°06' W 122°16'0 0.0
2018-Apr-24 02:27N 38°06' W 122°16'0 0.7
2018-Apr-24 02:00N 38°06' W 122°16'510.5
2018-Apr-24 01:31N 38°02' W 122°20'1428.9
2018-Apr-24 01:00N 37°48' W 122°24'3 5.6
2018-Apr-24 00:31N 37°51' W 122°24'1529.6
2018-Apr-24 00:01N 38°04' W 122°16'2 4.5
2018-Apr-23 23:30N 38°06' W 122°16'510.2
2018-Apr-23 23:00N 38°02' W 122°20'1529.0
2018-Apr-23 22:30N 37°48' W 122°24'1 2.4
2018-Apr-23 22:01N 37°49' W 122°25'917.9
2018-Apr-23 21:30N 37°57' W 122°27'1217.6
2018-Apr-23 20:49N 38°06' W 122°16'0 0.1
2018-Apr-23 19:37N 38°06' W 122°16'0 1.4
2018-Apr-23 19:30N 38°06' W 122°16'510.7
2018-Apr-23 19:00N 38°02' W 122°20'1427.7
2018-Apr-23 18:30N 37°49' W 122°25'1 2.4
2018-Apr-23 18:01N 37°48' W 122°24'1019.6
2018-Apr-23 17:30N 37°57' W 122°27'1224.1
2018-Apr-23 17:00N 38°06' W 122°16'0 0.0
2018-Apr-23 16:30N 38°06' W 122°16'1 1.4
2018-Apr-23 16:00N 38°05' W 122°15'1326.3
2018-Apr-23 15:31N 37°55' W 122°25'714.7
2018-Apr-23 15:00N 37°48' W 122°24'1223.1
2018-Apr-23 14:31N 37°59' W 122°25'1019.9
2018-Apr-23 14:00N 38°06' W 122°16'0 0.6
2018-Apr-23 13:30N 38°06' W 122°16'0 0.0
2018-Apr-23 12:59N 38°06' W 122°16'0 0.0
2018-Apr-23 11:24N 38°06' W 122°16'0 0.0
2018-Apr-23 11:00N 38°06' W 122°16'0 0.0
2018-Apr-23 09:51N 38°06' W 122°16'0 0.0
2018-Apr-23 09:30N 38°06' W 122°16'0 0.0
2018-Apr-23 09:00N 38°06' W 122°16'0 0.0
2018-Apr-23 08:30N 38°06' W 122°16'0 0.0
2018-Apr-23 08:00N 38°06' W 122°16'0 0.0
2018-Apr-23 07:30N 38°06' W 122°16'0 0.0
2018-Apr-23 07:00N 38°06' W 122°16'0 0.0
2018-Apr-23 06:30N 38°06' W 122°16'0 0.0
2018-Apr-23 06:00N 38°06' W 122°16'0 0.0
2018-Apr-23 05:30N 38°06' W 122°16'0 0.0
2018-Apr-23 05:00N 38°06' W 122°16'0 0.0
2018-Apr-23 04:30N 38°06' W 122°16'0 0.0
2018-Apr-23 04:00N 38°06' W 122°16'0 0.0
2018-Apr-23 03:30N 38°06' W 122°16'0 0.0
2018-Apr-23 03:00N 38°06' W 122°16'0 0.0
2018-Apr-23 00:49N 38°06' W 122°16'0 1.0
2018-Apr-23 00:30N 38°06' W 122°16'1123.3
2018-Apr-23 00:01N 37°58' W 122°26'1020.2
2018-Apr-22 23:30N 37°48' W 122°24'1325.4
2018-Apr-22 23:00N 38°00' W 122°24'812.6
2018-Apr-22 22:21N 38°06' W 122°16'0 0.0
2018-Apr-22 20:43N 38°06' W 122°16'2 7.8
2018-Apr-22 20:29N 38°04' W 122°15'1430.0
2018-Apr-22 20:01N 37°53' W 122°25'510.1
2018-Apr-22 19:30N 37°48' W 122°24'1122.6
2018-Apr-22 19:01N 37°59' W 122°26'10 6.4
2018-Apr-22 17:24N 38°06' W 122°16'0 0.0
2018-Apr-22 16:48N 38°06' W 122°16'0 0.0
2018-Apr-22 16:30N 38°06' W 122°16'0 0.0
2018-Apr-22 16:00N 38°06' W 122°16'0 0.0
2018-Apr-22 15:24N 38°06' W 122°16'0 0.0
2018-Apr-22 15:00N 38°06' W 122°16'0 0.0
2018-Apr-22 13:30N 38°06' W 122°16'0 0.0
2018-Apr-22 11:54N 38°06' W 122°16'0 0.0
2018-Apr-22 11:18N 38°06' W 122°16'0 0.0
2018-Apr-22 11:00N 38°06' W 122°16'0 0.0
2018-Apr-22 10:30N 38°06' W 122°16'0 0.0
2018-Apr-22 10:00N 38°06' W 122°16'0 0.0
2018-Apr-22 09:30N 38°06' W 122°16'0 0.0
2018-Apr-22 09:00N 38°06' W 122°16'0 0.0
2018-Apr-22 08:30N 38°06' W 122°16'0 0.0
2018-Apr-22 07:54N 38°06' W 122°16'0 0.0
2018-Apr-22 04:36N 38°06' W 122°16'0 0.0
2018-Apr-22 03:24N 38°06' W 122°16'0 0.0
2018-Apr-22 03:00N 38°06' W 122°16'0 0.0
2018-Apr-22 02:30N 38°06' W 122°16'0 0.0
2018-Apr-22 02:00N 38°06' W 122°16'0 0.0
2018-Apr-22 01:30N 38°06' W 122°16'0 0.0
2018-Apr-22 01:00N 38°06' W 122°16'0 0.8
2018-Apr-22 00:30N 38°06' W 122°16'1224.2
2018-Apr-22 00:01N 37°57' W 122°26'918.3
2018-Apr-21 23:30N 37°48' W 122°24'1326.9
2018-Apr-21 23:00N 38°01' W 122°23'714.2
2018-Apr-21 22:30N 38°06' W 122°16'0 0.1
2018-Apr-21 20:53N 38°06' W 122°16'2 4.9
2018-Apr-21 20:28N 38°04' W 122°15'1431.0
2018-Apr-21 20:01N 37°52' W 122°24'4 8.6
2018-Apr-21 19:30N 37°48' W 122°24'1326.2
2018-Apr-21 19:01N 38°01' W 122°24'8 3.9
2018-Apr-21 17:00N 38°06' W 122°16'0 0.0
2018-Apr-21 16:30N 38°06' W 122°16'0 0.0
2018-Apr-21 15:36N 38°06' W 122°16'0 0.0
2018-Apr-21 15:24N 38°06' W 122°16'0 0.0
2018-Apr-21 15:00N 38°06' W 122°16'0 0.0
2018-Apr-21 10:48N 38°06' W 122°16'0 0.0
2018-Apr-21 03:22N 38°06' W 122°16'1 2.5
2018-Apr-21 03:00N 38°05' W 122°15'1326.8
2018-Apr-21 02:30N 37°55' W 122°25'612.6
2018-Apr-21 02:00N 37°49' W 122°24'3 5.6
2018-Apr-21 01:31N 37°51' W 122°25'1530.2
2018-Apr-21 01:00N 38°04' W 122°15'2 3.8
2018-Apr-21 00:30N 38°06' W 122°16'511.1
2018-Apr-21 00:00N 38°02' W 122°21'1428.7
2018-Apr-20 23:30N 37°48' W 122°24'2 3.6
2018-Apr-20 23:01N 37°50' W 122°24'1428.7
2018-Apr-20 22:30N 38°03' W 122°17'3 6.3
2018-Apr-20 22:00N 38°06' W 122°16'0 0.1
2018-Apr-20 19:32N 38°06' W 122°16'0 4.4
2018-Apr-20 19:30N 38°06' W 122°16'4 8.7
2018-Apr-20 19:00N 38°02' W 122°19'1529.5
2018-Apr-20 18:31N 37°49' W 122°25'1 2.4
2018-Apr-20 18:00N 37°48' W 122°24'1019.9
2018-Apr-20 17:31N 37°57' W 122°27'12 9.1
2018-Apr-20 16:11N 38°06' W 122°16'1 6.6
2018-Apr-20 16:00N 38°05' W 122°15'1326.5
2018-Apr-20 15:30N 37°55' W 122°25'714.8
2018-Apr-20 15:00N 37°48' W 122°24'918.6
2018-Apr-20 14:30N 37°57' W 122°27'1323.4
2018-Apr-20 13:58N 38°06' W 122°16'0 0.0
2018-Apr-20 03:25N 38°06' W 122°16'1 3.3
2018-Apr-20 02:59N 38°05' W 122°15'1327.4
2018-Apr-20 02:31N 37°55' W 122°25'612.9
2018-Apr-20 02:01N 37°49' W 122°24'1 2.6
2018-Apr-20 01:30N 37°50' W 122°25'1631.1
2018-Apr-20 01:00N 38°04' W 122°16'2 4.3
2018-Apr-20 00:29N 38°06' W 122°16'612.7
2018-Apr-20 00:00N 38°02' W 122°21'1428.1
2018-Apr-19 23:30N 37°48' W 122°24'0 0.9
2018-Apr-19 23:01N 37°48' W 122°23'1529.8
2018-Apr-19 22:30N 38°03' W 122°19'4 8.0
2018-Apr-19 22:00N 38°06' W 122°16'0 0.0
2018-Apr-19 16:55N 38°06' W 122°16'612.9
2018-Apr-19 16:30N 38°02' W 122°20'1428.5
2018-Apr-19 16:00N 37°48' W 122°24'1 2.8
2018-Apr-19 15:31N 37°49' W 122°24'1631.4
2018-Apr-19 15:00N 38°04' W 122°16'2 4.7
2018-Apr-19 14:30N 38°06' W 122°16'816.5
2018-Apr-19 14:01N 38°01' W 122°23'1325.5
2018-Apr-19 13:30N 37°48' W 122°24'1020.1
2018-Apr-19 13:00N 37°58' W 122°26'1120.3
2018-Apr-19 12:27N 38°06' W 122°16'0 0.0
2018-Apr-19 04:25N 38°06' W 122°16'2 3.7
2018-Apr-19 04:00N 38°05' W 122°15'1326.5
2018-Apr-19 03:31N 37°55' W 122°25'714.7
2018-Apr-19 03:00N 37°48' W 122°24'2 3.7
2018-Apr-19 02:31N 37°50' W 122°24'1631.4
2018-Apr-19 02:00N 38°04' W 122°15'2 2.4
2018-Apr-19 01:11N 38°06' W 122°16'1 6.8
2018-Apr-19 01:00N 38°05' W 122°15'1327.1
2018-Apr-19 00:31N 37°54' W 122°25'713.5
2018-Apr-19 00:00N 37°48' W 122°24'1223.2
2018-Apr-18 23:30N 37°59' W 122°25'1018.8
2018-Apr-18 22:59N 38°06' W 122°16'0 0.0
2018-Apr-18 16:59N 38°06' W 122°16'612.2
2018-Apr-18 16:30N 38°02' W 122°21'1427.6
2018-Apr-18 16:00N 37°48' W 122°24'1 1.5
2018-Apr-18 15:31N 37°49' W 122°23'1631.3
2018-Apr-18 15:00N 38°03' W 122°17'3 5.6
2018-Apr-18 14:30N 38°06' W 122°16'816.2
2018-Apr-18 14:00N 38°01' W 122°23'1325.4
2018-Apr-18 13:30N 37°48' W 122°24'918.4
2018-Apr-18 13:00N 37°57' W 122°26'1218.9
2018-Apr-18 12:22N 38°06' W 122°16'0 0.1
2018-Apr-18 09:18N 38°06' W 122°16'0 0.0
2018-Apr-18 07:23N 38°06' W 122°16'0 0.0
2018-Apr-18 07:00N 38°06' W 122°16'0 0.0
2018-Apr-18 06:30N 38°06' W 122°16'0 0.0
2018-Apr-18 06:00N 38°06' W 122°16'0 0.0
2018-Apr-18 05:16N 38°06' W 122°16'0 0.0
2018-Apr-18 05:00N 38°06' W 122°16'0 0.0
2018-Apr-18 04:30N 38°06' W 122°16'0 0.0
2018-Apr-18 04:00N 38°06' W 122°16'0 0.3
2018-Apr-18 03:30N 38°06' W 122°16'2 3.8
2018-Apr-18 03:00N 38°05' W 122°15'1326.7
2018-Apr-18 02:31N 37°54' W 122°25'611.1
2018-Apr-18 02:00N 37°49' W 122°24'2 4.0
2018-Apr-18 01:31N 37°50' W 122°25'1631.0
2018-Apr-18 01:00N 38°04' W 122°15'2 2.6
2018-Apr-18 00:16N 38°06' W 122°16'2 7.7
2018-Apr-18 00:00N 38°04' W 122°15'1529.4
2018-Apr-17 23:31N 37°51' W 122°24'2 4.8
2018-Apr-17 23:00N 37°49' W 122°24'1530.3
2018-Apr-17 22:30N 38°03' W 122°17'3 5.6
2018-Apr-17 22:01N 38°06' W 122°16'0 0.0
2018-Apr-17 16:59N 38°06' W 122°16'713.7
2018-Apr-17 16:31N 38°01' W 122°22'1427.0
2018-Apr-17 16:00N 37°48' W 122°24'1 1.3
2018-Apr-17 15:31N 37°48' W 122°23'1631.3
2018-Apr-17 15:01N 38°03' W 122°17'3 5.8
2018-Apr-17 14:30N 38°06' W 122°16'816.3
2018-Apr-17 14:01N 38°01' W 122°23'1325.5
2018-Apr-17 13:30N 37°48' W 122°24'918.6
2018-Apr-17 13:01N 37°57' W 122°27'1317.5
2018-Apr-17 12:17N 38°06' W 122°16'0 0.0
2018-Apr-17 04:21N 38°06' W 122°16'1 2.9
2018-Apr-17 04:01N 38°05' W 122°15'1326.3
2018-Apr-17 03:31N 37°55' W 122°25'714.2
2018-Apr-17 03:01N 37°48' W 122°24'1 1.3
2018-Apr-17 02:31N 37°48' W 122°23'1631.3
2018-Apr-17 02:01N 38°03' W 122°17'3 3.4
2018-Apr-17 01:11N 38°06' W 122°16'1 6.2
2018-Apr-17 01:01N 38°05' W 122°15'1225.0
2018-Apr-17 00:30N 37°56' W 122°26'816.1
2018-Apr-17 00:00N 37°48' W 122°24'1122.3
2018-Apr-16 23:31N 37°59' W 122°26'1114.4
2018-Apr-16 22:47N 38°06' W 122°16'0 0.0
2018-Apr-16 16:51N 38°06' W 122°16'514.7
2018-Apr-16 16:30N 38°02' W 122°20'1529.3
2018-Apr-16 16:01N 37°48' W 122°24'1 2.3
2018-Apr-16 15:30N 37°49' W 122°23'1530.3
2018-Apr-16 15:01N 38°03' W 122°17'3 5.5
2018-Apr-16 14:29N 38°06' W 122°16'816.6
2018-Apr-16 14:01N 38°01' W 122°23'1325.9
2018-Apr-16 13:30N 37°48' W 122°24'1019.8
2018-Apr-16 13:01N 37°57' W 122°27'1216.2
2018-Apr-16 12:16N 38°06' W 122°16'2 0.2
2018-Apr-16 02:41N 38°04' W 122°15'528.8
2018-Apr-16 02:30N 38°02' W 122°21'1428.7
2018-Apr-16 02:01N 37°48' W 122°24'1 2.4
2018-Apr-16 01:30N 37°49' W 122°25'0 0.4
2018-Apr-16 01:00N 37°49' W 122°25'1530.5
2018-Apr-16 00:31N 38°03' W 122°18'3 5.8
2018-Apr-15 23:54N 38°06' W 122°16'511.6
2018-Apr-15 23:31N 38°02' W 122°19'  

Dump ship's entire track history